createdAt,value
2019-06-10T00:10:27.583Z,11.28
2019-06-10T00:30:40.874Z,9.33
2019-06-10T00:50:51.786Z,10.10
2019-06-10T01:11:08.153Z,11.90
2019-06-10T01:31:17.580Z,10.93
2019-06-10T01:51:24.302Z,10.60
2019-06-10T02:11:34.417Z,10.35
2019-06-10T02:31:43.791Z,10.40
2019-06-10T02:51:55.513Z,10.32
2019-06-10T03:12:05.374Z,11.85
2019-06-10T03:32:15.240Z,17.62
2019-06-10T03:52:26.465Z,11.10
2019-06-10T04:12:35.357Z,24.15
2019-06-10T04:32:45.133Z,12.07
2019-06-10T04:52:55.732Z,13.75
2019-06-10T05:13:05.690Z,15.35
2019-06-10T05:33:14.448Z,11.00
2019-06-10T05:53:28.051Z,12.17
2019-06-10T06:13:38.499Z,10.93
2019-06-10T06:33:47.666Z,11.22
2019-06-10T06:53:57.458Z,12.88
2019-06-10T07:14:10.127Z,10.20
2019-06-10T07:34:22.274Z,8.45
2019-06-10T07:54:35.923Z,10.35
2019-06-10T08:14:49.603Z,7.20
2019-06-10T08:34:58.580Z,6.60
2019-06-10T08:55:08.076Z,9.23
2019-06-10T09:15:19.104Z,10.88
2019-06-10T09:35:32.170Z,7.60
2019-06-10T09:55:41.640Z,9.85
2019-06-10T10:15:52.855Z,11.80
2019-06-10T10:36:02.856Z,8.08
2019-06-10T10:56:12.833Z,10.60
2019-06-10T11:16:23.160Z,7.60
2019-06-10T11:36:32.701Z,6.08
2019-06-10T11:56:43.333Z,7.17
2019-06-10T12:37:12.010Z,8.13
2019-06-10T12:57:16.843Z,5.95
2019-06-10T13:17:26.637Z,11.00
2019-06-10T13:37:38.623Z,5.75
2019-06-10T13:57:50.351Z,11.38
2019-06-10T14:18:05.195Z,12.45
2019-06-10T14:38:15.895Z,6.87
2019-06-10T14:58:25.543Z,8.93
2019-06-10T15:18:35.966Z,6.80
2019-06-10T15:38:44.493Z,10.90
2019-06-10T15:58:53.264Z,10.72
2019-06-10T16:19:03.607Z,7.53
2019-06-10T16:39:32.540Z,7.35
2019-06-10T16:59:43.577Z,6.35
2019-06-10T17:19:55.174Z,8.78
2019-06-10T17:40:03.955Z,9.55
2019-06-10T18:00:14.878Z,9.18
2019-06-10T18:20:28.862Z,9.30
2019-06-10T18:40:42.792Z,6.28
2019-06-10T19:01:00.726Z,10.13
2019-06-10T19:21:03.502Z,32.85
2019-06-10T19:41:11.098Z,23.77
2019-06-10T20:01:37.154Z,29.63
2019-06-10T20:21:54.299Z,32.15
2019-06-10T20:42:03.114Z,22.42
2019-06-10T21:02:13.616Z,21.12
2019-06-10T21:22:22.143Z,13.28
2019-06-10T21:42:32.712Z,11.33
2019-06-10T22:02:43.217Z,9.75
2019-06-10T22:22:56.272Z,34.55
2019-06-10T22:43:03.922Z,47.03
2019-06-10T23:03:15.367Z,41.95
2019-06-10T23:23:25.284Z,35.35
2019-06-10T23:43:34.286Z,39.15
